Chusovoy, Russia
Current Conditions -  °F | °C
As of 5:30 AM on Monday 22 Dec 2014 (Local Time) from USPP Reporting Station
Broken Clouds Broken Clouds  
Wind Chill: 20°   Ceiling: 7000
Heat Index: 30°   Visibility: 6mi
Dew Point: 28°   Wind: 13mph
Humidity: 93%   Direction: 200°SSW
Pressure: 29.65"   Gusts: NA
Location:  58.29°N, 57.82°E
Report Text: USPP 220030Z 20006MPS 9999 FEW046 BKN070 M01/M02 Q1004 21690245TEMPO -FZRA RMK QFE743/0990
Loading
Personal Weather Stations






























Interactive Weather Map New forecast layout! Learn more

10-Day Weather Forecast

Advertisements
Track Severe Weather on mobile